Terminal Aerodrome Forecast
Issued by NWS Blacksburg, VA

Home | Current Version | Previous Version | Text Only | Print | Product List | Glossary On
Versions: 1 2 3 4 5 6 7 8 9 10 11 12 13 14 15 16 17
000
FTUS41 KRNK 242334
TAFLYH
TAF
KLYH 242334Z 2500/2524 17005KT P6SM SCT040
     FM250800 17005KT P6SM OVC035
     FM251500 20011G20KT 5SM -SHRA BKN030
      TEMPO 2515/2519 2SM SHRA BKN020
     FM252000 28015G25KT P6SM SCT050=

USA.gov is the U.S. government's official web portal to all federal, state and local government web resources and services.